createdAt,value
2019-04-23T00:00:45.030Z,57.2
2019-04-23T00:01:48.814Z,57.1
2019-04-23T00:02:48.564Z,56.8
2019-04-23T00:03:45.391Z,56.4
2019-04-23T00:05:46.599Z,56.8
2019-04-23T00:06:57.201Z,56.8
2019-04-23T00:07:55.720Z,56.8
2019-04-23T00:08:48.578Z,57.0
2019-04-23T00:09:46.222Z,57.0
2019-04-23T00:10:51.301Z,57.1
2019-04-23T00:11:45.705Z,57.0
2019-04-23T00:12:47.685Z,56.9
2019-04-23T00:13:48.218Z,57.1
2019-04-23T00:14:54.569Z,57.0
2019-04-23T00:15:58.449Z,57.0
2019-04-23T00:16:49.057Z,57.0
2019-04-23T00:17:47.634Z,57.3
2019-04-23T00:18:45.925Z,57.2
2019-04-23T00:19:55.030Z,57.1
2019-04-23T00:20:47.533Z,57.1
2019-04-23T00:21:51.924Z,57.0
2019-04-23T00:22:51.459Z,57.0
2019-04-23T00:23:51.206Z,57.1
2019-04-23T00:25:52.404Z,57.6
2019-04-23T00:26:41.640Z,57.6
2019-04-23T00:28:49.906Z,57.5
2019-04-23T00:29:52.196Z,57.7
2019-04-23T00:30:54.795Z,57.5
2019-04-23T00:32:45.956Z,57.8
2019-04-23T00:33:49.411Z,57.8
2019-04-23T00:34:47.133Z,57.9
2019-04-23T00:35:43.089Z,57.9
2019-04-23T00:36:50.952Z,58.0
2019-04-23T00:37:47.137Z,58.2
2019-04-23T00:38:44.588Z,58.4
2019-04-23T00:40:50.736Z,58.3
2019-04-23T00:41:42.359Z,58.5
2019-04-23T00:42:46.159Z,58.5
2019-04-23T00:43:54.323Z,58.8
2019-04-23T00:44:45.749Z,58.8
2019-04-23T00:47:49.430Z,58.9
2019-04-23T00:49:48.777Z,59.3
2019-04-23T00:51:49.471Z,59.2
2019-04-23T00:52:45.539Z,59.2
2019-04-23T00:53:43.502Z,59.3
2019-04-23T00:54:48.651Z,59.3
2019-04-23T00:56:52.425Z,59.4
2019-04-23T00:57:48.288Z,59.3
2019-04-23T00:58:47.519Z,59.5
2019-04-23T00:59:53.415Z,59.5
2019-04-23T01:00:52.200Z,59.5
2019-04-23T01:01:55.598Z,59.8
2019-04-23T01:03:51.620Z,60.0
2019-04-23T01:04:47.483Z,59.9
2019-04-23T01:05:46.479Z,59.8
2019-04-23T01:07:44.332Z,60.0
2019-04-23T01:08:50.563Z,60.1
2019-04-23T01:09:52.251Z,60.2
2019-04-23T01:10:51.912Z,60.3
2019-04-23T01:11:47.952Z,60.4
2019-04-23T01:13:48.700Z,60.7
2019-04-23T01:14:47.983Z,60.8
2019-04-23T01:15:52.183Z,60.8
2019-04-23T01:16:42.332Z,60.8
2019-04-23T01:17:46.697Z,60.6
2019-04-23T01:18:51.194Z,60.9
2019-04-23T01:19:49.356Z,60.9
2019-04-23T01:21:18.213Z,61.3
2019-04-23T01:22:16.784Z,61.1
2019-04-23T01:23:31.858Z,61.2
2019-04-23T01:24:25.763Z,61.4
2019-04-23T01:25:40.187Z,61.4
2019-04-23T01:26:49.879Z,61.5
2019-04-23T01:27:54.406Z,61.5
2019-04-23T01:28:47.514Z,61.7
2019-04-23T01:29:57.439Z,61.7
2019-04-23T01:30:46.636Z,61.8
2019-04-23T01:31:47.370Z,62.0
2019-04-23T01:32:53.405Z,61.9
2019-04-23T01:33:50.010Z,61.7
2019-04-23T01:34:55.726Z,61.8
2019-04-23T01:35:47.778Z,61.9
2019-04-23T01:36:39.862Z,62.0
2019-04-23T01:37:46.120Z,62.2
2019-04-23T01:38:53.292Z,62.4
2019-04-23T01:39:57.156Z,62.5
2019-04-23T01:40:45.569Z,62.6
2019-04-23T01:41:55.360Z,62.5
2019-04-23T01:42:47.699Z,62.5
2019-04-23T01:43:50.125Z,62.6
2019-04-23T01:44:59.860Z,62.9
2019-04-23T01:45:40.708Z,62.8
2019-04-23T01:46:53.975Z,63.1
2019-04-23T01:47:44.988Z,63.1
2019-04-23T01:48:51.458Z,63.2
2019-04-23T01:49:53.482Z,63.1
2019-04-23T01:50:52.711Z,63.1
2019-04-23T01:51:45.964Z,63.1
2019-04-23T01:53:45.089Z,63.2
2019-04-23T01:54:51.782Z,63.2
2019-04-23T01:55:46.380Z,63.4
2019-04-23T01:56:46.991Z,63.4
2019-04-23T01:57:54.449Z,63.4
2019-04-23T01:59:54.460Z,63.5
2019-04-23T02:00:52.698Z,63.7
2019-04-23T02:01:49.898Z,63.5
2019-04-23T02:02:55.269Z,63.4
2019-04-23T02:03:54.170Z,63.5
2019-04-23T02:05:55.115Z,63.4
2019-04-23T02:07:56.191Z,63.5
2019-04-23T02:09:55.127Z,63.9
2019-04-23T02:11:50.452Z,63.8
2019-04-23T02:12:55.302Z,63.8
2019-04-23T02:13:48.603Z,63.5
2019-04-23T02:14:54.521Z,63.8
2019-04-23T02:15:51.394Z,63.6
2019-04-23T02:16:54.945Z,63.7
2019-04-23T02:17:57.806Z,63.9
2019-04-23T02:18:56.039Z,64.0
2019-04-23T02:20:00.843Z,64.0
2019-04-23T02:20:52.441Z,64.0
2019-04-23T02:21:57.152Z,64.0
2019-04-23T02:22:58.153Z,64.2
2019-04-23T02:23:47.827Z,64.2
2019-04-23T02:24:53.841Z,64.2
2019-04-23T02:25:53.600Z,64.2
2019-04-23T02:26:48.347Z,64.3
2019-04-23T02:27:59.187Z,64.5
2019-04-23T02:28:45.889Z,65.4
2019-04-23T02:30:05.169Z,64.9
2019-04-23T02:33:09.938Z,64.5
2019-04-23T02:34:00.258Z,64.5
2019-04-23T02:35:08.569Z,64.5
2019-04-23T02:35:53.692Z,64.7
2019-04-23T02:36:59.351Z,64.8
2019-04-23T02:38:55.354Z,65.1
2019-04-23T02:40:03.677Z,65.6
2019-04-23T02:42:04.460Z,64.8
2019-04-23T02:43:06.143Z,65.3
2019-04-23T02:50:06.393Z,65.2
2019-04-23T02:50:52.951Z,65.0
2019-04-23T02:51:58.329Z,65.1
2019-04-23T02:53:04.550Z,65.2
2019-04-23T02:54:03.785Z,65.2
2019-04-23T02:58:00.402Z,65.2
2019-04-23T03:01:14.348Z,65.2
2019-04-23T03:03:59.378Z,65.8
2019-04-23T03:05:00.431Z,65.7
2019-04-23T03:05:48.966Z,65.6
2019-04-23T03:07:44.819Z,65.7
2019-04-23T03:08:48.933Z,65.6
2019-04-23T03:09:58.542Z,65.7
2019-04-23T03:11:06.936Z,65.8
2019-04-23T03:12:05.639Z,65.7
2019-04-23T03:12:56.294Z,65.8
2019-04-23T03:14:00.138Z,65.8
2019-04-23T03:16:05.899Z,65.8
2019-04-23T03:17:57.258Z,65.8
2019-04-23T03:21:55.677Z,65.8
2019-04-23T03:23:02.390Z,65.7
2019-04-23T03:23:49.425Z,66.0
2019-04-23T03:24:43.138Z,65.9
2019-04-23T03:25:44.535Z,65.9
2019-04-23T03:27:07.168Z,65.8
2019-04-23T03:27:45.802Z,66.0
2019-04-23T03:29:03.437Z,66.0
2019-04-23T03:30:05.809Z,65.9
2019-04-23T03:35:07.815Z,66.2
2019-04-23T03:38:51.344Z,66.5
2019-04-23T03:40:01.593Z,66.3
2019-04-23T03:41:06.408Z,66.5
2019-04-23T03:41:59.323Z,66.3
2019-04-23T03:43:06.196Z,66.1
2019-04-23T03:43:46.177Z,66.3
2019-04-23T03:45:07.279Z,66.6
2019-04-23T03:48:50.675Z,66.9
2019-04-23T03:50:50.532Z,66.6
2019-04-23T03:51:50.995Z,66.6
2019-04-23T03:52:53.228Z,66.6
2019-04-23T03:54:16.062Z,66.4
2019-04-23T03:56:02.019Z,66.5
2019-04-23T03:57:13.234Z,66.5
2019-04-23T03:58:57.853Z,66.7
2019-04-23T04:00:45.299Z,66.7
2019-04-23T04:02:08.754Z,66.7
2019-04-23T04:03:04.544Z,66.9
2019-04-23T04:04:49.185Z,66.8
2019-04-23T04:06:05.059Z,66.8
2019-04-23T04:06:47.839Z,66.9
2019-04-23T04:09:05.785Z,67.1
2019-04-23T04:09:47.140Z,67.0
2019-04-23T04:10:51.723Z,66.9
2019-04-23T04:12:03.475Z,67.1
2019-04-23T04:12:55.995Z,67.0
2019-04-23T04:15:03.505Z,66.9
2019-04-23T04:16:00.203Z,66.8
2019-04-23T04:16:58.833Z,66.8
2019-04-23T04:18:09.108Z,66.8
2019-04-23T04:19:05.899Z,67.0
2019-04-23T04:20:48.661Z,66.8
2019-04-23T04:21:47.446Z,67.0
2019-04-23T04:24:58.900Z,67.1
2019-04-23T04:25:46.515Z,67.0
2019-04-23T04:27:53.601Z,66.7
2019-04-23T04:28:58.596Z,66.7
2019-04-23T04:29:59.333Z,66.8
2019-04-23T04:30:51.825Z,66.8
2019-04-23T04:31:59.658Z,66.8
2019-04-23T04:33:04.736Z,66.6
2019-04-23T04:34:10.395Z,66.7
2019-04-23T04:35:15.990Z,66.7
2019-04-23T04:36:05.392Z,66.8
2019-04-23T04:37:26.411Z,67.0
2019-04-23T04:38:15.132Z,67.0
2019-04-23T04:38:54.089Z,67.0
2019-04-23T04:39:52.225Z,66.7
2019-04-23T04:41:00.881Z,66.8
2019-04-23T04:41:49.962Z,66.5
2019-04-23T04:42:54.121Z,66.6
2019-04-23T04:44:45.942Z,66.3
2019-04-23T04:47:47.772Z,66.1
2019-04-23T04:50:59.819Z,66.1
2019-04-23T04:53:09.593Z,66.0
2019-04-23T04:54:09.171Z,65.8
2019-04-23T04:54:55.088Z,66.0
2019-04-23T04:56:04.763Z,66.1
2019-04-23T04:56:59.744Z,65.8
2019-04-23T04:57:52.015Z,66.0
2019-04-23T04:59:03.455Z,65.3
2019-04-23T05:03:08.862Z,65.3
2019-04-23T05:03:52.619Z,65.0
2019-04-23T05:07:47.214Z,65.2
2019-04-23T05:09:00.423Z,64.9
2019-04-23T05:10:07.160Z,65.2
2019-04-23T05:10:51.096Z,65.2
2019-04-23T05:13:11.049Z,65.0
2019-04-23T05:13:49.564Z,65.3
2019-04-23T05:15:57.888Z,64.8
2019-04-23T05:16:55.891Z,65.0
2019-04-23T05:17:58.802Z,64.7
2019-04-23T05:19:56.076Z,64.5
2019-04-23T05:21:58.526Z,64.7
2019-04-23T05:23:05.758Z,64.3
2019-04-23T05:24:50.876Z,64.2
2019-04-23T05:26:53.092Z,64.3
2019-04-23T05:28:02.553Z,64.8
2019-04-23T05:30:00.557Z,63.6
2019-04-23T05:30:58.510Z,63.8
2019-04-23T05:31:52.747Z,64.1
2019-04-23T05:32:48.520Z,63.9
2019-04-23T05:34:55.316Z,63.4
2019-04-23T05:36:53.258Z,63.9
2019-04-23T05:37:50.175Z,63.6
2019-04-23T05:38:58.179Z,63.5
2019-04-23T05:39:53.307Z,63.7
2019-04-23T05:41:45.025Z,63.2
2019-04-23T05:42:51.850Z,63.4
2019-04-23T05:43:44.748Z,62.8
2019-04-23T05:44:53.799Z,63.4
2019-04-23T05:45:55.017Z,63.3
2019-04-23T05:46:44.681Z,63.0
2019-04-23T05:47:58.326Z,62.8
2019-04-23T05:48:52.097Z,63.1
2019-04-23T05:49:50.313Z,63.0
2019-04-23T05:50:50.430Z,62.8
2019-04-23T05:51:54.878Z,62.9
2019-04-23T05:53:50.786Z,62.8
2019-04-23T05:54:56.115Z,63.0
2019-04-23T05:55:55.076Z,62.2
2019-04-23T05:56:51.519Z,61.8
2019-04-23T05:57:51.817Z,61.9
2019-04-23T05:59:46.583Z,62.1
2019-04-23T06:00:44.766Z,61.6
2019-04-23T06:02:01.992Z,61.6
2019-04-23T06:02:47.942Z,61.5
2019-04-23T06:04:02.794Z,61.8
2019-04-23T06:05:46.026Z,61.5
2019-04-23T06:07:08.189Z,61.2
2019-04-23T06:07:53.266Z,61.4
2019-04-23T06:08:52.642Z,61.0
2019-04-23T06:10:47.270Z,61.1
2019-04-23T06:11:56.098Z,61.0
2019-04-23T06:12:43.367Z,61.0
2019-04-23T06:14:45.529Z,61.0
2019-04-23T06:15:50.197Z,61.0
2019-04-23T06:16:49.109Z,61.0
2019-04-23T06:17:46.040Z,61.2
2019-04-23T06:19:49.412Z,60.5
2019-04-23T06:21:49.235Z,60.4
2019-04-23T06:23:49.416Z,60.4
2019-04-23T06:24:44.962Z,60.3
2019-04-23T06:27:54.104Z,60.8
2019-04-23T06:28:48.538Z,60.3
2019-04-23T06:30:46.597Z,60.8
2019-04-23T06:32:51.057Z,60.9
2019-04-23T06:33:53.713Z,61.0
2019-04-23T06:34:51.061Z,61.0
2019-04-23T06:35:50.116Z,61.0
2019-04-23T06:36:44.307Z,60.8
2019-04-23T06:38:55.730Z,59.9
2019-04-23T06:39:54.673Z,59.9
2019-04-23T06:40:53.747Z,60.0
2019-04-23T06:41:54.559Z,60.2
2019-04-23T06:42:51.906Z,60.0
2019-04-23T06:43:49.522Z,60.2
2019-04-23T06:44:55.962Z,60.0
2019-04-23T06:45:42.706Z,59.7
2019-04-23T06:46:56.601Z,59.5
2019-04-23T06:48:53.330Z,59.0
2019-04-23T06:49:43.591Z,59.0
2019-04-23T06:50:55.898Z,59.5
2019-04-23T06:52:49.603Z,58.4
2019-04-23T06:55:55.231Z,58.0
2019-04-23T06:56:58.505Z,58.4
2019-04-23T06:57:53.965Z,58.7
2019-04-23T06:58:47.100Z,59.4
2019-04-23T06:59:53.937Z,58.5
2019-04-23T07:00:55.325Z,57.8
2019-04-23T07:02:44.051Z,58.2
2019-04-23T07:03:43.043Z,57.5
2019-04-23T07:04:56.575Z,57.5
2019-04-23T07:06:02.847Z,58.4
2019-04-23T07:07:04.248Z,58.2
2019-04-23T07:07:56.206Z,57.3
2019-04-23T07:08:55.683Z,57.2
2019-04-23T07:09:51.472Z,57.2
2019-04-23T07:11:47.286Z,57.4
2019-04-23T07:12:46.970Z,57.2
2019-04-23T07:15:44.592Z,57.0
2019-04-23T07:16:52.279Z,57.1
2019-04-23T07:17:53.886Z,57.2
2019-04-23T07:20:58.230Z,56.5
2019-04-23T07:21:57.300Z,56.7
2019-04-23T07:22:49.582Z,57.2
2019-04-23T07:23:58.534Z,56.9
2019-04-23T07:24:52.547Z,57.0
2019-04-23T07:25:46.630Z,56.7
2019-04-23T07:26:41.677Z,56.6
2019-04-23T07:27:47.194Z,57.0
2019-04-23T07:28:52.960Z,56.8
2019-04-23T07:29:45.544Z,56.8
2019-04-23T07:30:49.320Z,57.5
2019-04-23T07:32:49.432Z,57.0
2019-04-23T07:33:55.603Z,56.4
2019-04-23T07:35:00.755Z,56.2
2019-04-23T07:36:53.589Z,56.0
2019-04-23T07:39:00.943Z,56.9
2019-04-23T07:40:09.196Z,56.2
2019-04-23T07:40:53.546Z,56.0
2019-04-23T07:42:02.573Z,55.8
2019-04-23T07:44:04.706Z,55.4
2019-04-23T07:44:56.282Z,55.3
2019-04-23T07:45:42.473Z,55.0
2019-04-23T07:46:52.487Z,54.8
2019-04-23T07:48:01.300Z,54.8
2019-04-23T07:48:55.532Z,54.8
2019-04-23T07:50:47.554Z,54.5
2019-04-23T07:52:49.271Z,55.6
2019-04-23T07:54:00.012Z,55.1
2019-04-23T07:55:47.991Z,55.6
2019-04-23T07:57:01.605Z,54.8
2019-04-23T07:58:44.372Z,55.0
2019-04-23T07:59:53.240Z,54.8
2019-04-23T08:00:48.538Z,55.0
2019-04-23T08:01:55.611Z,54.3
2019-04-23T08:02:55.694Z,55.1
2019-04-23T08:05:48.888Z,54.9
2019-04-23T08:06:58.850Z,54.0
2019-04-23T08:08:48.539Z,54.3
2019-04-23T08:09:47.576Z,54.2
2019-04-23T08:11:14.054Z,53.9
2019-04-23T08:11:44.126Z,54.9
2019-04-23T08:12:50.436Z,54.4
2019-04-23T08:13:53.125Z,54.5
2019-04-23T08:15:53.675Z,54.0
2019-04-23T08:16:49.742Z,53.6
2019-04-23T08:20:53.568Z,53.5
2019-04-23T08:21:43.572Z,53.5
2019-04-23T08:22:53.346Z,53.0
2019-04-23T08:23:48.538Z,52.4
2019-04-23T08:26:01.954Z,53.0
2019-04-23T08:26:46.989Z,52.5
2019-04-23T08:28:57.710Z,52.6
2019-04-23T08:29:47.523Z,53.1
2019-04-23T08:30:45.093Z,52.9
2019-04-23T08:31:59.845Z,52.0
2019-04-23T08:32:56.662Z,51.7
2019-04-23T08:33:56.283Z,51.9
2019-04-23T08:34:58.301Z,51.8
2019-04-23T08:35:56.943Z,51.5
2019-04-23T08:36:54.666Z,51.2
2019-04-23T08:37:53.835Z,50.6
2019-04-23T08:38:50.408Z,50.2
2019-04-23T08:39:42.821Z,50.8
2019-04-23T08:41:02.362Z,51.0
2019-04-23T08:41:51.340Z,50.5
2019-04-23T08:42:44.058Z,51.0
2019-04-23T08:43:56.569Z,50.4
2019-04-23T08:45:02.891Z,50.3
2019-04-23T08:45:52.337Z,51.2
2019-04-23T08:47:50.469Z,52.0
2019-04-23T08:48:00.333Z,52.3
2019-04-23T08:48:57.378Z,52.2
2019-04-23T08:50:48.909Z,51.0
2019-04-23T08:51:59.940Z,50.3
2019-04-23T08:53:03.558Z,50.5
2019-04-23T08:53:55.263Z,49.7
2019-04-23T08:55:53.372Z,49.6
2019-04-23T08:56:47.726Z,48.9
2019-04-23T08:57:46.597Z,48.6
2019-04-23T08:58:47.174Z,49.2
2019-04-23T08:59:55.494Z,48.6
2019-04-23T09:00:51.543Z,48.4
2019-04-23T09:01:55.311Z,49.5
2019-04-23T09:02:58.496Z,49.8
2019-04-23T09:03:51.061Z,49.4
2019-04-23T09:04:49.337Z,50.0
2019-04-23T09:05:57.185Z,48.9
2019-04-23T09:07:59.442Z,48.8
2019-04-23T09:08:49.363Z,49.4
2019-04-23T09:09:56.468Z,48.5
2019-04-23T09:10:47.726Z,48.5
2019-04-23T09:11:53.644Z,48.8
2019-04-23T09:13:02.393Z,48.5
2019-04-23T09:14:43.169Z,48.6
2019-04-23T09:15:54.344Z,48.2
2019-04-23T09:16:50.799Z,48.6
2019-04-23T09:17:54.814Z,49.5
2019-04-23T09:18:43.968Z,48.7
2019-04-23T09:20:11.593Z,48.8
2019-04-23T09:20:40.905Z,49.4
2019-04-23T09:21:49.406Z,49.5
2019-04-23T09:22:49.864Z,48.9
2019-04-23T09:23:46.498Z,49.0
2019-04-23T09:24:46.698Z,49.5
2019-04-23T09:25:53.420Z,49.0
2019-04-23T09:26:58.101Z,48.8
2019-04-23T09:27:43.983Z,48.7
2019-04-23T09:28:44.593Z,48.9
2019-04-23T09:29:59.879Z,48.6
2019-04-23T09:30:53.986Z,48.8
2019-04-23T09:32:58.647Z,48.1
2019-04-23T09:33:51.262Z,48.5
2019-04-23T09:34:51.988Z,49.7
2019-04-23T09:35:52.309Z,49.0
2019-04-23T09:36:57.784Z,49.7
2019-04-23T09:37:51.857Z,49.2
2019-04-23T09:38:44.461Z,49.6
2019-04-23T09:39:58.522Z,49.9
2019-04-23T09:40:54.208Z,49.5
2019-04-23T09:41:50.831Z,49.4
2019-04-23T09:42:54.149Z,48.8
2019-04-23T09:43:53.403Z,49.3
2019-04-23T09:44:53.514Z,48.8
2019-04-23T09:45:55.772Z,48.9
2019-04-23T09:46:52.272Z,49.2
2019-04-23T09:47:56.645Z,49.2
2019-04-23T09:48:57.786Z,49.2
2019-04-23T09:49:46.098Z,48.9
2019-04-23T09:50:53.645Z,48.8
2019-04-23T09:53:02.734Z,48.3
2019-04-23T09:53:57.561Z,48.5
2019-04-23T09:54:47.500Z,48.5
2019-04-23T09:55:45.263Z,48.8
2019-04-23T09:59:42.846Z,48.4
2019-04-23T10:01:44.840Z,48.4
2019-04-23T10:02:45.149Z,48.2
2019-04-23T10:03:40.244Z,47.7
2019-04-23T10:04:44.718Z,47.9
2019-04-23T10:05:36.894Z,48.4
2019-04-23T10:06:26.324Z,48.7
2019-04-23T10:07:38.128Z,48.2
2019-04-23T10:08:29.550Z,48.5
2019-04-23T10:09:20.845Z,48.1
2019-04-23T10:10:16.591Z,48.4
2019-04-23T10:11:19.932Z,47.6
2019-04-23T10:12:17.872Z,47.2
2019-04-23T10:13:18.110Z,47.3
2019-04-23T10:14:16.840Z,46.7
2019-04-23T10:15:30.423Z,47.0
2019-04-23T10:16:23.292Z,47.4
2019-04-23T10:17:18.174Z,46.6
2019-04-23T10:18:16.459Z,46.8
2019-04-23T10:19:17.274Z,47.2
2019-04-23T10:20:18.306Z,47.2
2019-04-23T10:21:17.687Z,46.0
2019-04-23T10:22:17.503Z,45.8
2019-04-23T10:23:16.780Z,46.1
2019-04-23T10:24:17.137Z,46.1
2019-04-23T10:25:17.337Z,45.2
2019-04-23T10:26:16.653Z,45.7
2019-04-23T10:27:18.586Z,46.2
2019-04-23T10:28:20.474Z,46.5
2019-04-23T10:29:17.807Z,46.0
2019-04-23T10:30:17.832Z,47.1
2019-04-23T10:31:16.919Z,46.2
2019-04-23T10:32:17.808Z,45.9
2019-04-23T10:33:17.076Z,47.0
2019-04-23T10:34:17.180Z,47.0
2019-04-23T10:35:34.940Z,46.4
2019-04-23T10:36:23.851Z,46.8
2019-04-23T10:37:36.566Z,47.0
2019-04-23T10:38:20.655Z,47.0
2019-04-23T10:39:28.021Z,46.8
2019-04-23T10:40:27.963Z,46.2
2019-04-23T10:41:18.387Z,46.7
2019-04-23T10:42:18.348Z,46.5
2019-04-23T10:43:17.252Z,46.9
2019-04-23T10:44:17.389Z,47.4
2019-04-23T10:45:41.841Z,47.0
2019-04-23T10:46:46.576Z,46.5
2019-04-23T10:48:59.184Z,46.2
2019-04-23T10:49:56.256Z,45.8
2019-04-23T10:50:45.879Z,46.6
2019-04-23T10:51:50.382Z,46.2
2019-04-23T10:52:59.137Z,46.1
2019-04-23T10:53:48.966Z,46.0
2019-04-23T10:54:49.841Z,45.7
2019-04-23T10:55:46.328Z,46.7
2019-04-23T10:56:57.998Z,46.9
2019-04-23T10:57:52.691Z,46.5
2019-04-23T10:58:52.030Z,46.4
2019-04-23T10:59:46.191Z,45.8
2019-04-23T11:00:44.655Z,46.2
2019-04-23T11:02:08.044Z,46.2
2019-04-23T11:02:55.667Z,46.4
2019-04-23T11:04:15.476Z,45.8
2019-04-23T11:04:53.643Z,45.6
2019-04-23T11:05:57.358Z,45.5
2019-04-23T11:06:44.931Z,45.5
2019-04-23T11:07:46.920Z,45.2
2019-04-23T11:08:40.359Z,45.8
2019-04-23T11:10:49.401Z,46.4
2019-04-23T11:12:44.271Z,46.5
2019-04-23T11:13:44.749Z,46.2
2019-04-23T11:15:55.081Z,46.8
2019-04-23T11:16:56.457Z,46.6
2019-04-23T11:17:47.466Z,46.3
2019-04-23T11:18:51.241Z,46.6
2019-04-23T11:19:48.946Z,46.5
2019-04-23T11:20:47.772Z,46.2
2019-04-23T11:22:01.184Z,46.2
2019-04-23T11:22:53.155Z,46.0
2019-04-23T11:23:47.746Z,46.0
2019-04-23T11:24:57.715Z,46.0
2019-04-23T11:25:47.434Z,46.1
2019-04-23T11:26:54.706Z,46.5
2019-04-23T11:27:57.205Z,45.9
2019-04-23T11:28:49.754Z,47.0
2019-04-23T11:29:59.437Z,46.5
2019-04-23T11:30:40.478Z,46.2
2019-04-23T11:32:04.214Z,47.2
2019-04-23T11:33:58.307Z,47.4
2019-04-23T11:35:03.064Z,46.3
2019-04-23T11:36:17.293Z,46.6
2019-04-23T11:36:59.387Z,46.6
2019-04-23T11:38:57.399Z,46.0
2019-04-23T11:39:59.921Z,46.0
2019-04-23T11:40:48.250Z,45.6
2019-04-23T11:41:57.650Z,45.5
2019-04-23T11:42:57.009Z,46.0
2019-04-23T11:43:52.756Z,46.8
2019-04-23T11:44:54.919Z,46.2
2019-04-23T11:49:51.989Z,46.8
2019-04-23T11:51:25.461Z,46.8
2019-04-23T11:52:07.013Z,47.0
2019-04-23T11:52:48.173Z,46.7
2019-04-23T11:53:54.096Z,47.6
2019-04-23T11:54:42.951Z,46.9
2019-04-23T11:56:01.461Z,47.2
2019-04-23T11:57:17.789Z,47.0
2019-04-23T11:58:05.577Z,46.1
2019-04-23T11:58:51.291Z,46.5
2019-04-23T11:59:43.331Z,47.0
2019-04-23T12:01:01.973Z,46.2
2019-04-23T12:01:52.136Z,47.0
2019-04-23T12:02:52.947Z,47.2
2019-04-23T12:04:58.980Z,46.7
2019-04-23T12:05:47.987Z,47.0
2019-04-23T12:06:57.756Z,46.3
2019-04-23T12:07:39.132Z,46.5
2019-04-23T12:08:42.911Z,45.8
2019-04-23T12:09:46.252Z,46.4
2019-04-23T12:11:14.111Z,46.2
2019-04-23T12:11:56.245Z,46.1
2019-04-23T12:12:52.276Z,46.2
2019-04-23T12:13:59.422Z,46.4
2019-04-23T12:14:49.741Z,46.6
2019-04-23T12:15:45.955Z,46.1
2019-04-23T12:17:06.796Z,46.2
2019-04-23T12:18:51.271Z,46.5
2019-04-23T12:19:59.456Z,46.3
2019-04-23T12:20:47.486Z,47.0
2019-04-23T12:22:00.454Z,47.0
2019-04-23T12:23:03.775Z,47.2
2019-04-23T12:24:03.149Z,47.5
2019-04-23T12:25:06.172Z,46.8
2019-04-23T12:25:44.115Z,46.4
2019-04-23T12:26:58.296Z,47.0
2019-04-23T12:27:38.064Z,46.6
2019-04-23T12:29:52.082Z,45.6
2019-04-23T12:30:50.019Z,45.7
2019-04-23T12:31:45.070Z,46.5
2019-04-23T12:33:01.595Z,47.1
2019-04-23T12:33:56.582Z,46.9
2019-04-23T12:35:49.284Z,46.8
2019-04-23T12:37:53.485Z,46.5
2019-04-23T12:38:48.779Z,46.8
2019-04-23T12:39:49.215Z,47.0
2019-04-23T12:40:43.008Z,46.8
2019-04-23T12:42:00.989Z,46.6
2019-04-23T12:43:10.505Z,46.7
2019-04-23T12:45:01.861Z,47.0
2019-04-23T12:45:46.711Z,47.2
2019-04-23T12:48:46.327Z,47.2
2019-04-23T12:50:17.194Z,47.3
2019-04-23T12:50:48.120Z,48.3
2019-04-23T12:52:46.503Z,48.0
2019-04-23T12:53:39.631Z,47.0
2019-04-23T12:55:06.637Z,47.2
2019-04-23T12:55:50.033Z,47.0
2019-04-23T12:57:50.288Z,46.8
2019-04-23T12:58:50.062Z,46.8
2019-04-23T12:59:56.619Z,46.6
2019-04-23T13:00:38.681Z,47.1
2019-04-23T13:01:48.714Z,46.4
2019-04-23T13:02:48.336Z,46.1
2019-04-23T13:03:39.006Z,46.3
2019-04-23T13:05:35.530Z,46.4
2019-04-23T13:07:51.637Z,45.9
2019-04-23T13:08:49.671Z,46.6
2019-04-23T13:10:49.243Z,46.6
2019-04-23T13:11:49.493Z,46.7
2019-04-23T13:13:01.200Z,47.0
2019-04-23T13:13:58.065Z,46.5
2019-04-23T13:15:46.396Z,46.8
2019-04-23T13:17:00.230Z,46.5
2019-04-23T13:17:53.484Z,46.9
2019-04-23T13:18:49.427Z,47.5
2019-04-23T13:19:59.499Z,48.0
2019-04-23T13:20:47.354Z,46.8
2019-04-23T13:21:56.579Z,47.2
2019-04-23T13:23:53.101Z,47.2
2019-04-23T13:24:53.421Z,47.1
2019-04-23T13:25:53.770Z,47.5
2019-04-23T13:26:54.754Z,47.0
2019-04-23T13:28:00.174Z,47.0
2019-04-23T13:28:49.441Z,47.1
2019-04-23T13:29:56.354Z,47.4
2019-04-23T13:30:58.077Z,47.2
2019-04-23T13:32:58.779Z,47.5
2019-04-23T13:33:49.475Z,46.7
2019-04-23T13:35:07.764Z,46.7
2019-04-23T13:36:00.852Z,46.4
2019-04-23T13:36:43.223Z,45.9
2019-04-23T13:37:58.635Z,45.9
2019-04-23T13:38:53.580Z,46.3
2019-04-23T13:39:43.436Z,46.0
2019-04-23T13:40:55.312Z,46.7
2019-04-23T13:41:45.716Z,46.9
2019-04-23T13:42:52.172Z,47.0
2019-04-23T13:43:47.682Z,47.1
2019-04-23T13:45:03.684Z,47.0
2019-04-23T13:45:58.819Z,46.5
2019-04-23T13:48:00.307Z,45.7
2019-04-23T13:49:50.619Z,46.0
2019-04-23T13:50:59.044Z,45.3
2019-04-23T13:51:53.795Z,46.0
2019-04-23T13:53:51.209Z,45.6
2019-04-23T13:55:02.672Z,44.9
2019-04-23T13:55:43.993Z,44.8
2019-04-23T13:57:15.747Z,44.7
2019-04-23T13:58:54.767Z,43.0
2019-04-23T13:59:55.505Z,41.8
2019-04-23T14:01:45.892Z,39.8
2019-04-23T14:03:53.381Z,39.1
2019-04-23T14:04:57.434Z,38.2
2019-04-23T14:05:59.372Z,38.6
2019-04-23T14:06:55.242Z,39.2
2019-04-23T14:07:58.717Z,38.8
2019-04-23T14:08:58.697Z,38.6
2019-04-23T14:10:02.689Z,38.4
2019-04-23T14:10:51.542Z,39.0
2019-04-23T14:11:50.855Z,39.6
2019-04-23T14:13:14.329Z,39.0
2019-04-23T14:13:54.844Z,39.0
2019-04-23T14:14:55.706Z,39.4
2019-04-23T14:15:53.286Z,39.5
2019-04-23T14:16:58.045Z,39.3
2019-04-23T14:17:51.354Z,39.3
2019-04-23T14:18:58.269Z,39.4
2019-04-23T14:19:59.703Z,39.2
2019-04-23T14:20:54.753Z,38.3
2019-04-23T14:22:01.254Z,38.0
2019-04-23T14:23:06.641Z,37.8
2019-04-23T14:24:07.702Z,37.4
2019-04-23T14:26:08.189Z,37.8
2019-04-23T14:26:57.948Z,38.5
2019-04-23T14:28:03.996Z,37.9
2019-04-23T14:28:49.774Z,38.5
2019-04-23T14:30:04.980Z,37.7
2019-04-23T14:30:58.697Z,38.8
2019-04-23T14:32:02.791Z,38.8
2019-04-23T14:34:04.464Z,39.7
2019-04-23T14:35:49.498Z,39.1
2019-04-23T14:38:15.412Z,39.2
2019-04-23T14:39:45.176Z,39.3
2019-04-23T14:41:04.394Z,39.0
2019-04-23T14:41:52.759Z,39.0
2019-04-23T14:43:06.039Z,39.1
2019-04-23T14:45:11.841Z,39.5
2019-04-23T14:46:18.347Z,39.2
2019-04-23T14:46:49.011Z,39.9
2019-04-23T14:48:03.777Z,40.2
2019-04-23T14:49:58.578Z,39.8
2019-04-23T14:50:56.693Z,39.5
2019-04-23T14:53:05.751Z,40.1
2019-04-23T14:53:51.803Z,40.0
2019-04-23T14:55:33.071Z,40.0
2019-04-23T14:56:58.507Z,41.0
2019-04-23T15:00:01.447Z,40.8
2019-04-23T15:00:52.372Z,40.5
2019-04-23T15:01:54.631Z,40.9
2019-04-23T15:02:58.597Z,40.8
2019-04-23T15:03:46.027Z,41.4
2019-04-23T15:04:47.114Z,41.0
2019-04-23T15:06:04.289Z,41.5
2019-04-23T15:06:59.972Z,41.4
2019-04-23T15:09:03.907Z,41.5
2019-04-23T15:10:00.587Z,42.0
2019-04-23T15:11:11.030Z,41.7
2019-04-23T15:12:01.444Z,41.8
2019-04-23T15:14:51.008Z,41.7
2019-04-23T15:16:02.437Z,42.3
2019-04-23T15:17:55.379Z,42.0
2019-04-23T15:19:54.534Z,42.1
2019-04-23T15:21:04.637Z,42.0
2019-04-23T15:21:53.416Z,42.1
2019-04-23T15:23:12.951Z,42.5
2019-04-23T15:23:59.451Z,42.6
2019-04-23T15:25:00.386Z,42.7
2019-04-23T15:26:22.209Z,42.5
2019-04-23T15:28:06.468Z,43.2
2019-04-23T15:28:29.886Z,43.1
2019-04-23T15:29:48.071Z,43.0
2019-04-23T15:31:02.130Z,43.0
2019-04-23T15:31:48.622Z,43.4
2019-04-23T15:34:00.119Z,43.8
2019-04-23T15:34:57.203Z,44.0
2019-04-23T15:38:17.864Z,44.1
2019-04-23T15:38:49.133Z,44.2
2019-04-23T15:40:58.829Z,44.4
2019-04-23T15:41:46.147Z,44.5
2019-04-23T15:44:55.065Z,44.5
2019-04-23T15:46:01.944Z,45.1
2019-04-23T15:46:44.261Z,44.4
2019-04-23T15:47:47.869Z,44.8
2019-04-23T15:49:58.845Z,44.6
2019-04-23T15:51:03.882Z,45.3
2019-04-23T15:51:56.328Z,45.1
2019-04-23T15:53:48.331Z,44.6
2019-04-23T15:54:46.968Z,44.9
2019-04-23T15:55:58.934Z,45.1
2019-04-23T15:56:54.348Z,45.5
2019-04-23T15:57:59.402Z,45.2
2019-04-23T15:58:52.458Z,45.1
2019-04-23T15:59:54.450Z,45.4
2019-04-23T16:00:58.591Z,45.6
2019-04-23T16:01:40.919Z,45.2
2019-04-23T16:02:16.447Z,45.5
2019-04-23T16:03:21.434Z,45.6
2019-04-23T16:04:20.568Z,45.8
2019-04-23T16:05:20.965Z,45.7
2019-04-23T16:06:24.557Z,45.4
2019-04-23T16:07:47.730Z,45.4
2019-04-23T16:09:04.563Z,46.3
2019-04-23T16:10:04.026Z,45.6
2019-04-23T16:11:04.451Z,45.6
2019-04-23T16:11:51.309Z,45.6
2019-04-23T16:12:56.209Z,45.5
2019-04-23T16:15:57.846Z,46.3
2019-04-23T16:16:49.687Z,47.0
2019-04-23T16:18:58.505Z,47.3
2019-04-23T16:20:43.926Z,47.9
2019-04-23T16:21:59.843Z,48.0
2019-04-23T16:24:00.594Z,48.3
2019-04-23T16:25:00.746Z,48.7
2019-04-23T16:25:57.937Z,49.4
2019-04-23T16:26:55.209Z,49.5
2019-04-23T16:27:56.129Z,50.3
2019-04-23T16:29:15.549Z,50.4
2019-04-23T16:30:54.583Z,50.7
2019-04-23T16:31:54.027Z,51.0
2019-04-23T16:33:02.269Z,51.2
2019-04-23T16:35:01.317Z,51.1
2019-04-23T16:35:58.068Z,51.4
2019-04-23T16:38:07.476Z,51.5
2019-04-23T16:40:01.244Z,51.9
2019-04-23T16:40:47.341Z,52.0